Řízení letového provozu České republiky  
Aktualizace dat:  18.04.2014 15:38:17 UTC English version
   METEO Zobrazení stránky:  18.04.2014 15:50:41 UTC  
vysvětlivky
METAR EDDB 181520Z 07006KT 9999 FEW020CB SCT030 10/05 Q1010 NOSIG=
METAR EDDC 181520Z VRB03KT 9999 SCT025 SCT042 08/03 Q1010 NOSIG=
METAR EDDE 181520Z 33008KT 9999 SCT026 FEW033CB 09/04 Q1010 NOSIG=
METAR EDDF 181520Z 31012KT CAVOK 14/M05 Q1011 NOSIG=
METAR EDDM 181520Z 01004KT 9999 -RA FEW014 OVC120 05/03 Q1011 NOSIG=
METAR EDDN 181520Z VRB01KT 9999 SCT020CB SCT078 06/04 Q1011 TEMPO 34015G25KT 4000 SHRA=
METAR EDDP 181520Z 32009KT 9999 SCT020CB SCT090 08/05 Q1011 TEMPO SHRA=
METAR EDDT 181520Z VRB03KT 9999 FEW025CB SCT070 11/03 Q1010 NOSIG=
METAR EDQM 181520Z 02005KT 9999 SCT008 BKN076 05/02 Q1011=
METAR EPBY 181530Z 26005KT CAVOK 15/M00 Q1010 =
METAR EPGD 181530Z 15006KT 110V200 CAVOK 15/M02 Q1011 =
METAR EPKK 181530Z 04007KT 9999 SCT050 17/07 Q1008 =
METAR EPKT 181530Z 13003KT 080V170 9999 FEW047 17/01 Q1008 =
METAR EPLL 181530Z VRB03KT CAVOK 16/04 Q1009 =
METAR EPPO 181530Z 32005KT CAVOK 10/06 Q1011 =
METAR EPRZ 181530Z 10011KT CAVOK 19/09 Q1008 =
METAR EPWA 181530Z 10008KT 070V130 9999 SCT056CB 18/06 Q1010 NOSIG=
METAR EPWR 181530Z 32010KT CAVOK 11/06 Q1010 =
METAR LHBP 181530Z 33007KT CAVOK 20/06 Q1005 NOSIG=
METAR LHSM 181515Z 33010KT CAVOK 18/03 Q1006 NOSIG=
METAR LKCV 181500Z 33008KT 270V360 9999 SCT011 OVC030 08/06 Q1010 NOSIG=
METAR LKKB 181500Z VRB02KT 9999 FEW012 BKN018 OVC050 07/04 Q1010 NOSIG=
METAR LKKU 181400Z 27003KT CAVOK 18/01 Q1007 RMK REG QNH 1005=
METAR LKKV 181530Z 32004KT 9999 SCT019 BKN043 06/01 Q1009 RMK REG QNH 1005=
METAR LKLN 181500Z AUTO 05001KT 9999 BKN021 OVC035 08/03 Q1010=
METAR LKMT 181530Z VRB01KT CAVOK 16/M00 Q1008 NOSIG RMK REG QNH 1005=
METAR LKNA 181500Z 30012KT CAVOK 13/00 Q1008 NOSIG=
METAR LKPD 181500Z 31008KT 9999 -RA SCT017 BKN035 OVC060 08/05 Q1010 NOSIG=
METAR LKPR 181530Z 36003KT 310V040 9999 BKN015 06/03 Q1010 NOSIG RMK REG QNH 1005=
METAR LKTB 181530Z 27012KT CAVOK 16/M01 Q1008 NOSIG RMK REG QNH 1005=
METAR LKVO NIL
METAR LOWI 181520Z 07011KT 040V100 9999 SCT030 SCT050 BKN070 09/02 Q1008 NOSIG=
METAR LOWL 181520Z 30013KT 9999 FEW030 BKN090 10/04 Q1010 NOSIG=
METAR LOWS 181520Z 33006KT 9999 -RA FEW015 SCT025 BKN035 08/06 Q1010 TEMPO RA=
METAR LOWW 181520Z 31013KT CAVOK 18/01 Q1007 NOSIG=
METAR LZIB 181530Z 32008KT CAVOK 18/M02 Q1007 NOSIG=
METAR LZKZ 181530Z 06004KT 040V100 CAVOK 19/07 Q1006 NOSIG=
METAR LZPP 181530Z 30007KT 270V330 CAVOK 18/M04 Q1007=
METAR LZSL 181530Z 28003KT 220V310 CAVOK 19/06 Q1006=
METAR LZTT 181530Z 14004KT 100V180 9999 FEW045 SCT100 15/05 Q1007 NOSIG=
METAR LZZI 181530Z 25007KT CAVOK 17/05 Q1007=